sensor_id;sensor_type;location;lat;lon;timestamp;P1;durP1;ratioP1;P2;durP2;ratioP2
13388;SDS011;6764;53.250;10.410;2023-05-10T00:01:39;3.37;;;3.07;;
13388;SDS011;6764;53.250;10.410;2023-05-10T00:04:05;4.07;;;3.42;;
13388;SDS011;6764;53.250;10.410;2023-05-10T00:06:31;5.30;;;3.50;;
13388;SDS011;6764;53.250;10.410;2023-05-10T00:08:57;7.20;;;3.60;;
13388;SDS011;6764;53.250;10.410;2023-05-10T00:11:22;7.33;;;3.40;;
13388;SDS011;6764;53.250;10.410;2023-05-10T00:13:48;6.20;;;3.53;;
13388;SDS011;6764;53.250;10.410;2023-05-10T00:16:14;3.47;;;3.10;;
13388;SDS011;6764;53.250;10.410;2023-05-10T00:18:39;4.97;;;3.67;;
13388;SDS011;6764;53.250;10.410;2023-05-10T00:21:05;5.77;;;3.60;;
13388;SDS011;6764;53.250;10.410;2023-05-10T00:23:31;5.38;;;3.92;;
13388;SDS011;6764;53.250;10.410;2023-05-10T00:25:56;6.03;;;3.60;;
13388;SDS011;6764;53.250;10.410;2023-05-10T00:28:22;6.57;;;3.20;;
13388;SDS011;6764;53.250;10.410;2023-05-10T00:30:48;4.77;;;3.40;;
13388;SDS011;6764;53.250;10.410;2023-05-10T00:33:13;5.03;;;3.80;;
13388;SDS011;6764;53.250;10.410;2023-05-10T00:35:39;4.07;;;3.63;;
13388;SDS011;6764;53.250;10.410;2023-05-10T00:38:05;4.40;;;3.30;;
13388;SDS011;6764;53.250;10.410;2023-05-10T00:40:31;4.17;;;3.53;;
13388;SDS011;6764;53.250;10.410;2023-05-10T00:42:57;3.50;;;3.20;;
13388;SDS011;6764;53.250;10.410;2023-05-10T00:45:23;5.30;;;3.63;;
13388;SDS011;6764;53.250;10.410;2023-05-10T00:47:50;5.07;;;4.10;;
13388;SDS011;6764;53.250;10.410;2023-05-10T00:50:17;4.90;;;3.90;;
13388;SDS011;6764;53.250;10.410;2023-05-10T00:52:42;4.47;;;3.87;;
13388;SDS011;6764;53.250;10.410;2023-05-10T00:55:09;3.90;;;3.60;;
13388;SDS011;6764;53.250;10.410;2023-05-10T00:57:36;5.63;;;3.70;;
13388;SDS011;6764;53.250;10.410;2023-05-10T01:00:02;6.80;;;3.77;;
13388;SDS011;6764;53.250;10.410;2023-05-10T01:02:28;4.47;;;3.80;;
13388;SDS011;6764;53.250;10.410;2023-05-10T01:04:53;5.43;;;3.73;;
13388;SDS011;6764;53.250;10.410;2023-05-10T01:07:20;3.93;;;3.57;;
13388;SDS011;6764;53.250;10.410;2023-05-10T01:09:45;4.20;;;3.40;;
13388;SDS011;6764;53.250;10.410;2023-05-10T01:12:11;5.13;;;3.63;;
13388;SDS011;6764;53.250;10.410;2023-05-10T01:14:40;4.93;;;3.77;;
13388;SDS011;6764;53.250;10.410;2023-05-10T01:17:06;5.10;;;3.60;;
13388;SDS011;6764;53.250;10.410;2023-05-10T01:19:33;7.17;;;3.80;;
13388;SDS011;6764;53.250;10.410;2023-05-10T01:33:23;4.90;;;3.67;;
13388;SDS011;6764;53.250;10.410;2023-05-10T01:41:48;4.63;;;3.53;;
13388;SDS011;6764;53.250;10.410;2023-05-10T01:47:25;6.87;;;3.90;;
13388;SDS011;6764;53.250;10.410;2023-05-10T01:50:00;4.53;;;3.37;;
13388;SDS011;6764;53.250;10.410;2023-05-10T01:52:32;4.30;;;3.67;;
13388;SDS011;6764;53.250;10.410;2023-05-10T01:55:05;8.40;;;3.80;;
13388;SDS011;6764;53.250;10.410;2023-05-10T01:57:33;5.13;;;4.10;;
13388;SDS011;6764;53.250;10.410;2023-05-10T02:00:01;9.37;;;3.63;;
13388;SDS011;6764;53.250;10.410;2023-05-10T02:02:35;6.47;;;3.60;;
13388;SDS011;6764;53.250;10.410;2023-05-10T02:05:05;5.50;;;4.13;;
13388;SDS011;6764;53.250;10.410;2023-05-10T02:07:33;10.30;;;3.77;;
13388;SDS011;6764;53.250;10.410;2023-05-10T02:10:01;4.73;;;3.90;;
13388;SDS011;6764;53.250;10.410;2023-05-10T02:12:29;4.20;;;3.80;;
13388;SDS011;6764;53.250;10.410;2023-05-10T02:14:57;5.73;;;3.73;;
13388;SDS011;6764;53.250;10.410;2023-05-10T02:17:25;4.97;;;4.13;;
13388;SDS011;6764;53.250;10.410;2023-05-10T02:19:52;4.53;;;3.83;;
13388;SDS011;6764;53.250;10.410;2023-05-10T02:22:19;4.60;;;3.70;;
13388;SDS011;6764;53.250;10.410;2023-05-10T02:24:46;6.33;;;4.27;;
13388;SDS011;6764;53.250;10.410;2023-05-10T02:27:12;5.67;;;4.00;;
13388;SDS011;6764;53.250;10.410;2023-05-10T02:29:40;4.37;;;3.93;;
13388;SDS011;6764;53.250;10.410;2023-05-10T02:32:07;4.03;;;3.50;;
13388;SDS011;6764;53.250;10.410;2023-05-10T02:34:35;4.50;;;4.10;;
13388;SDS011;6764;53.250;10.410;2023-05-10T02:37:01;6.53;;;4.10;;
13388;SDS011;6764;53.250;10.410;2023-05-10T02:39:28;5.20;;;4.07;;
13388;SDS011;6764;53.250;10.410;2023-05-10T02:41:55;5.83;;;3.67;;
13388;SDS011;6764;53.250;10.410;2023-05-10T02:44:22;5.57;;;4.00;;
13388;SDS011;6764;53.250;10.410;2023-05-10T02:46:51;6.13;;;4.10;;
13388;SDS011;6764;53.250;10.410;2023-05-10T02:49:17;4.93;;;3.87;;
13388;SDS011;6764;53.250;10.410;2023-05-10T02:51:44;5.90;;;4.00;;
13388;SDS011;6764;53.250;10.410;2023-05-10T02:54:18;5.67;;;4.17;;
13388;SDS011;6764;53.250;10.410;2023-05-10T02:56:53;5.63;;;4.27;;
13388;SDS011;6764;53.250;10.410;2023-05-10T02:59:22;5.40;;;3.77;;
13388;SDS011;6764;53.250;10.410;2023-05-10T03:01:47;4.73;;;4.33;;
13388;SDS011;6764;53.250;10.410;2023-05-10T03:04:13;4.70;;;4.20;;
13388;SDS011;6764;53.250;10.410;2023-05-10T03:06:39;5.60;;;4.20;;
13388;SDS011;6764;53.250;10.410;2023-05-10T03:09:05;4.93;;;3.73;;
13388;SDS011;6764;53.250;10.410;2023-05-10T03:17:10;4.63;;;4.00;;
13388;SDS011;6764;53.250;10.410;2023-05-10T03:20:09;4.10;;;3.70;;
13388;SDS011;6764;53.250;10.410;2023-05-10T03:22:38;9.30;;;4.27;;
13388;SDS011;6764;53.250;10.410;2023-05-10T03:25:06;4.80;;;4.03;;
13388;SDS011;6764;53.250;10.410;2023-05-10T03:27:34;4.50;;;4.10;;
13388;SDS011;6764;53.250;10.410;2023-05-10T03:30:01;8.97;;;4.73;;
13388;SDS011;6764;53.250;10.410;2023-05-10T03:32:28;4.13;;;3.67;;
13388;SDS011;6764;53.250;10.410;2023-05-10T03:34:56;9.07;;;4.27;;
13388;SDS011;6764;53.250;10.410;2023-05-10T03:37:22;4.97;;;4.43;;
13388;SDS011;6764;53.250;10.410;2023-05-10T03:39:47;6.63;;;3.80;;
13388;SDS011;6764;53.250;10.410;2023-05-10T03:42:13;6.53;;;3.70;;
13388;SDS011;6764;53.250;10.410;2023-05-10T03:44:39;6.77;;;4.33;;
13388;SDS011;6764;53.250;10.410;2023-05-10T03:47:05;5.07;;;3.60;;
13388;SDS011;6764;53.250;10.410;2023-05-10T03:49:30;6.73;;;3.90;;
13388;SDS011;6764;53.250;10.410;2023-05-10T03:51:56;6.00;;;4.00;;
13388;SDS011;6764;53.250;10.410;2023-05-10T03:54:21;5.67;;;4.00;;
13388;SDS011;6764;53.250;10.410;2023-05-10T03:56:47;4.53;;;4.10;;
13388;SDS011;6764;53.250;10.410;2023-05-10T03:59:13;6.87;;;4.30;;
13388;SDS011;6764;53.250;10.410;2023-05-10T04:01:38;4.77;;;4.30;;
13388;SDS011;6764;53.250;10.410;2023-05-10T04:04:04;7.00;;;3.97;;
13388;SDS011;6764;53.250;10.410;2023-05-10T04:06:30;5.20;;;4.03;;
13388;SDS011;6764;53.250;10.410;2023-05-10T04:08:55;5.10;;;4.13;;
13388;SDS011;6764;53.250;10.410;2023-05-10T04:11:24;4.83;;;4.40;;
13388;SDS011;6764;53.250;10.410;2023-05-10T04:13:50;7.83;;;4.27;;
13388;SDS011;6764;53.250;10.410;2023-05-10T04:16:16;4.47;;;3.73;;
13388;SDS011;6764;53.250;10.410;2023-05-10T04:18:41;5.60;;;4.07;;
13388;SDS011;6764;53.250;10.410;2023-05-10T04:21:13;6.50;;;3.90;;
13388;SDS011;6764;53.250;10.410;2023-05-10T04:23:39;10.60;;;4.43;;
13388;SDS011;6764;53.250;10.410;2023-05-10T04:26:05;5.27;;;4.10;;
13388;SDS011;6764;53.250;10.410;2023-05-10T04:28:31;5.37;;;4.10;;
13388;SDS011;6764;53.250;10.410;2023-05-10T04:31:00;7.73;;;4.03;;
13388;SDS011;6764;53.250;10.410;2023-05-10T04:33:30;4.93;;;3.97;;
13388;SDS011;6764;53.250;10.410;2023-05-10T04:35:56;4.20;;;3.90;;
13388;SDS011;6764;53.250;10.410;2023-05-10T04:38:22;5.63;;;4.10;;
13388;SDS011;6764;53.250;10.410;2023-05-10T04:40:47;4.40;;;3.80;;
13388;SDS011;6764;53.250;10.410;2023-05-10T04:43:13;5.13;;;4.13;;
13388;SDS011;6764;53.250;10.410;2023-05-10T04:45:38;5.37;;;3.97;;
13388;SDS011;6764;53.250;10.410;2023-05-10T04:48:04;9.27;;;4.30;;
13388;SDS011;6764;53.250;10.410;2023-05-10T04:50:30;8.40;;;4.40;;
13388;SDS011;6764;53.250;10.410;2023-05-10T04:52:56;6.53;;;3.93;;
13388;SDS011;6764;53.250;10.410;2023-05-10T04:55:22;4.50;;;4.10;;
13388;SDS011;6764;53.250;10.410;2023-05-10T04:57:47;5.73;;;4.17;;
13388;SDS011;6764;53.250;10.410;2023-05-10T05:00:16;4.90;;;4.47;;
13388;SDS011;6764;53.250;10.410;2023-05-10T05:02:42;6.37;;;4.40;;
13388;SDS011;6764;53.250;10.410;2023-05-10T05:05:09;8.00;;;4.37;;
13388;SDS011;6764;53.250;10.410;2023-05-10T05:07:35;7.77;;;4.17;;
13388;SDS011;6764;53.250;10.410;2023-05-10T05:10:00;5.60;;;3.93;;
13388;SDS011;6764;53.250;10.410;2023-05-10T05:12:26;3.90;;;3.60;;
13388;SDS011;6764;53.250;10.410;2023-05-10T05:14:51;4.17;;;3.73;;
13388;SDS011;6764;53.250;10.410;2023-05-10T05:17:17;7.23;;;4.00;;
13388;SDS011;6764;53.250;10.410;2023-05-10T05:19:42;7.47;;;3.90;;
13388;SDS011;6764;53.250;10.410;2023-05-10T05:22:08;4.20;;;3.60;;
13388;SDS011;6764;53.250;10.410;2023-05-10T05:24:37;5.00;;;4.50;;
13388;SDS011;6764;53.250;10.410;2023-05-10T05:27:06;6.53;;;4.20;;
13388;SDS011;6764;53.250;10.410;2023-05-10T05:29:31;5.17;;;4.20;;
13388;SDS011;6764;53.250;10.410;2023-05-10T05:31:57;5.40;;;4.40;;
13388;SDS011;6764;53.250;10.410;2023-05-10T05:34:23;7.37;;;4.03;;
13388;SDS011;6764;53.250;10.410;2023-05-10T05:36:49;4.87;;;4.13;;
13388;SDS011;6764;53.250;10.410;2023-05-10T05:39:15;10.27;;;5.23;;
13388;SDS011;6764;53.250;10.410;2023-05-10T05:41:41;5.57;;;4.17;;
13388;SDS011;6764;53.250;10.410;2023-05-10T05:44:07;7.60;;;4.10;;
13388;SDS011;6764;53.250;10.410;2023-05-10T05:46:32;5.28;;;4.13;;
13388;SDS011;6764;53.250;10.410;2023-05-10T05:48:58;7.27;;;4.27;;
13388;SDS011;6764;53.250;10.410;2023-05-10T05:51:24;5.10;;;4.07;;
13388;SDS011;6764;53.250;10.410;2023-05-10T05:53:50;5.50;;;4.20;;
13388;SDS011;6764;53.250;10.410;2023-05-10T05:56:15;9.23;;;3.83;;
13388;SDS011;6764;53.250;10.410;2023-05-10T05:58:42;5.57;;;3.60;;
13388;SDS011;6764;53.250;10.410;2023-05-10T06:01:08;5.00;;;3.67;;
13388;SDS011;6764;53.250;10.410;2023-05-10T06:03:34;7.03;;;4.03;;
13388;SDS011;6764;53.250;10.410;2023-05-10T06:05:59;6.63;;;4.20;;
13388;SDS011;6764;53.250;10.410;2023-05-10T06:08:25;3.95;;;3.53;;
13388;SDS011;6764;53.250;10.410;2023-05-10T06:10:51;7.05;;;3.83;;
13388;SDS011;6764;53.250;10.410;2023-05-10T06:13:16;5.00;;;3.55;;
13388;SDS011;6764;53.250;10.410;2023-05-10T06:15:42;6.03;;;3.92;;
13388;SDS011;6764;53.250;10.410;2023-05-10T06:18:07;4.35;;;3.95;;
13388;SDS011;6764;53.250;10.410;2023-05-10T06:20:33;4.15;;;3.42;;
13388;SDS011;6764;53.250;10.410;2023-05-10T06:22:58;5.78;;;4.38;;
13388;SDS011;6764;53.250;10.410;2023-05-10T06:25:24;3.85;;;3.55;;
13388;SDS011;6764;53.250;10.410;2023-05-10T06:27:50;4.45;;;3.33;;
13388;SDS011;6764;53.250;10.410;2023-05-10T06:30:20;3.38;;;3.08;;
13388;SDS011;6764;53.250;10.410;2023-05-10T06:32:48;5.20;;;3.60;;
13388;SDS011;6764;53.250;10.410;2023-05-10T06:35:13;5.38;;;3.50;;
13388;SDS011;6764;53.250;10.410;2023-05-10T06:37:39;5.80;;;3.70;;
13388;SDS011;6764;53.250;10.410;2023-05-10T06:40:05;6.13;;;3.15;;
13388;SDS011;6764;53.250;10.410;2023-05-10T06:42:31;6.95;;;4.10;;
13388;SDS011;6764;53.250;10.410;2023-05-10T06:44:57;3.33;;;3.03;;
13388;SDS011;6764;53.250;10.410;2023-05-10T06:47:22;5.55;;;3.85;;
13388;SDS011;6764;53.250;10.410;2023-05-10T06:49:48;6.85;;;3.38;;
13388;SDS011;6764;53.250;10.410;2023-05-10T06:52:13;7.85;;;3.30;;
13388;SDS011;6764;53.250;10.410;2023-05-10T06:54:41;5.03;;;3.60;;
13388;SDS011;6764;53.250;10.410;2023-05-10T06:57:07;7.05;;;3.75;;
13388;SDS011;6764;53.250;10.410;2023-05-10T06:59:32;4.10;;;3.60;;
13388;SDS011;6764;53.250;10.410;2023-05-10T07:01:58;6.53;;;4.07;;
13388;SDS011;6764;53.250;10.410;2023-05-10T07:04:23;4.25;;;3.58;;
13388;SDS011;6764;53.250;10.410;2023-05-10T07:06:49;5.28;;;3.53;;
13388;SDS011;6764;53.250;10.410;2023-05-10T07:09:15;5.57;;;3.70;;
13388;SDS011;6764;53.250;10.410;2023-05-10T07:11:40;5.15;;;3.38;;
13388;SDS011;6764;53.250;10.410;2023-05-10T07:14:06;4.20;;;3.75;;
13388;SDS011;6764;53.250;10.410;2023-05-10T07:16:32;6.13;;;4.05;;
13388;SDS011;6764;53.250;10.410;2023-05-10T07:18:57;6.68;;;3.60;;
13388;SDS011;6764;53.250;10.410;2023-05-10T07:21:23;5.55;;;3.67;;
13388;SDS011;6764;53.250;10.410;2023-05-10T07:23:49;5.95;;;3.85;;
13388;SDS011;6764;53.250;10.410;2023-05-10T07:26:15;4.15;;;3.60;;
13388;SDS011;6764;53.250;10.410;2023-05-10T07:28:41;4.72;;;3.38;;
13388;SDS011;6764;53.250;10.410;2023-05-10T07:31:07;4.55;;;3.72;;
13388;SDS011;6764;53.250;10.410;2023-05-10T07:33:32;4.30;;;3.90;;
13388;SDS011;6764;53.250;10.410;2023-05-10T07:36:00;5.15;;;3.53;;
13388;SDS011;6764;53.250;10.410;2023-05-10T07:38:26;5.10;;;3.42;;
13388;SDS011;6764;53.250;10.410;2023-05-10T07:40:51;9.75;;;3.90;;
13388;SDS011;6764;53.250;10.410;2023-05-10T07:43:17;6.50;;;3.85;;
13388;SDS011;6764;53.250;10.410;2023-05-10T07:45:43;5.63;;;3.40;;
13388;SDS011;6764;53.250;10.410;2023-05-10T07:48:08;9.00;;;3.78;;
13388;SDS011;6764;53.250;10.410;2023-05-10T07:50:34;5.85;;;4.63;;
13388;SDS011;6764;53.250;10.410;2023-05-10T07:52:59;8.38;;;5.40;;
13388;SDS011;6764;53.250;10.410;2023-05-10T07:55:28;5.35;;;4.18;;
13388;SDS011;6764;53.250;10.410;2023-05-10T07:57:53;7.40;;;3.50;;
13388;SDS011;6764;53.250;10.410;2023-05-10T08:00:19;5.57;;;3.75;;
13388;SDS011;6764;53.250;10.410;2023-05-10T08:02:45;4.20;;;3.65;;
13388;SDS011;6764;53.250;10.410;2023-05-10T08:05:12;3.72;;;3.42;;
13388;SDS011;6764;53.250;10.410;2023-05-10T08:07:38;4.05;;;3.65;;
13388;SDS011;6764;53.250;10.410;2023-05-10T08:10:04;4.40;;;4.00;;
13388;SDS011;6764;53.250;10.410;2023-05-10T08:12:30;5.47;;;3.95;;
13388;SDS011;6764;53.250;10.410;2023-05-10T08:14:55;4.15;;;3.75;;
13388;SDS011;6764;53.250;10.410;2023-05-10T08:17:22;4.95;;;4.15;;
13388;SDS011;6764;53.250;10.410;2023-05-10T08:19:48;5.47;;;3.95;;
13388;SDS011;6764;53.250;10.410;2023-05-10T08:22:13;7.07;;;3.65;;
13388;SDS011;6764;53.250;10.410;2023-05-10T08:24:39;6.45;;;3.85;;
13388;SDS011;6764;53.250;10.410;2023-05-10T08:27:07;3.65;;;3.35;;
13388;SDS011;6764;53.250;10.410;2023-05-10T08:29:33;5.50;;;3.88;;
13388;SDS011;6764;53.250;10.410;2023-05-10T08:31:59;4.60;;;3.92;;
13388;SDS011;6764;53.250;10.410;2023-05-10T08:34:25;4.90;;;4.15;;
13388;SDS011;6764;53.250;10.410;2023-05-10T08:36:52;5.85;;;4.03;;
13388;SDS011;6764;53.250;10.410;2023-05-10T08:39:17;6.68;;;4.22;;
13388;SDS011;6764;53.250;10.410;2023-05-10T08:41:43;13.70;;;5.05;;
13388;SDS011;6764;53.250;10.410;2023-05-10T08:44:11;5.50;;;4.22;;
13388;SDS011;6764;53.250;10.410;2023-05-10T08:46:37;7.55;;;4.25;;
13388;SDS011;6764;53.250;10.410;2023-05-10T08:49:09;7.68;;;4.15;;
13388;SDS011;6764;53.250;10.410;2023-05-10T08:51:42;5.57;;;4.35;;
13388;SDS011;6764;53.250;10.410;2023-05-10T08:54:12;5.93;;;4.10;;
13388;SDS011;6764;53.250;10.410;2023-05-10T08:56:38;5.30;;;4.00;;
13388;SDS011;6764;53.250;10.410;2023-05-10T08:59:04;7.53;;;4.43;;
13388;SDS011;6764;53.250;10.410;2023-05-10T09:01:30;4.78;;;4.38;;
13388;SDS011;6764;53.250;10.410;2023-05-10T09:03:56;5.78;;;4.13;;
13388;SDS011;6764;53.250;10.410;2023-05-10T09:06:23;12.70;;;4.57;;
13388;SDS011;6764;53.250;10.410;2023-05-10T09:08:49;6.15;;;4.57;;
13388;SDS011;6764;53.250;10.410;2023-05-10T09:11:15;4.82;;;4.32;;
13388;SDS011;6764;53.250;10.410;2023-05-10T09:13:42;6.13;;;4.47;;
13388;SDS011;6764;53.250;10.410;2023-05-10T09:16:08;7.30;;;4.35;;
13388;SDS011;6764;53.250;10.410;2023-05-10T09:18:36;8.20;;;4.50;;
13388;SDS011;6764;53.250;10.410;2023-05-10T09:21:02;6.13;;;4.68;;
13388;SDS011;6764;53.250;10.410;2023-05-10T09:23:27;6.20;;;5.13;;
13388;SDS011;6764;53.250;10.410;2023-05-10T09:26:03;5.15;;;4.45;;
13388;SDS011;6764;53.250;10.410;2023-05-10T09:28:33;4.95;;;4.47;;
13388;SDS011;6764;53.250;10.410;2023-05-10T09:31:14;5.32;;;4.53;;
13388;SDS011;6764;53.250;10.410;2023-05-10T09:33:43;5.85;;;4.63;;
13388;SDS011;6764;53.250;10.410;2023-05-10T09:36:13;9.68;;;4.85;;
13388;SDS011;6764;53.250;10.410;2023-05-10T09:38:46;7.32;;;5.30;;
13388;SDS011;6764;53.250;10.410;2023-05-10T09:41:19;6.85;;;5.10;;
13388;SDS011;6764;53.250;10.410;2023-05-10T09:43:48;8.65;;;4.63;;
13388;SDS011;6764;53.250;10.410;2023-05-10T09:46:15;7.90;;;4.88;;
13388;SDS011;6764;53.250;10.410;2023-05-10T09:48:42;6.53;;;4.50;;
13388;SDS011;6764;53.250;10.410;2023-05-10T09:51:22;8.60;;;4.90;;
13388;SDS011;6764;53.250;10.410;2023-05-10T09:54:08;5.03;;;4.63;;
13388;SDS011;6764;53.250;10.410;2023-05-10T09:56:35;4.88;;;4.38;;
13388;SDS011;6764;53.250;10.410;2023-05-10T09:59:03;6.85;;;4.47;;
13388;SDS011;6764;53.250;10.410;2023-05-10T10:01:30;11.15;;;8.70;;
13388;SDS011;6764;53.250;10.410;2023-05-10T10:03:56;6.18;;;5.15;;
13388;SDS011;6764;53.250;10.410;2023-05-10T10:06:25;6.72;;;5.32;;
13388;SDS011;6764;53.250;10.410;2023-05-10T10:08:51;7.13;;;5.28;;
13388;SDS011;6764;53.250;10.410;2023-05-10T10:11:18;6.22;;;5.45;;
13388;SDS011;6764;53.250;10.410;2023-05-10T10:13:44;5.85;;;5.35;;
13388;SDS011;6764;53.250;10.410;2023-05-10T10:16:09;7.05;;;5.50;;
13388;SDS011;6764;53.250;10.410;2023-05-10T10:18:36;5.68;;;5.10;;
13388;SDS011;6764;53.250;10.410;2023-05-10T10:21:07;6.65;;;5.82;;
13388;SDS011;6764;53.250;10.410;2023-05-10T10:23:36;6.68;;;5.30;;
13388;SDS011;6764;53.250;10.410;2023-05-10T10:26:02;6.43;;;5.72;;
13388;SDS011;6764;53.250;10.410;2023-05-10T10:28:39;7.25;;;5.38;;
13388;SDS011;6764;53.250;10.410;2023-05-10T10:34:45;7.90;;;5.60;;
13388;SDS011;6764;53.250;10.410;2023-05-10T10:37:05;6.57;;;5.95;;
13388;SDS011;6764;53.250;10.410;2023-05-10T10:39:31;6.75;;;5.50;;
13388;SDS011;6764;53.250;10.410;2023-05-10T10:41:57;7.28;;;6.30;;
13388;SDS011;6764;53.250;10.410;2023-05-10T10:54:50;7.63;;;6.93;;
13388;SDS011;6764;53.250;10.410;2023-05-10T10:57:18;7.78;;;6.53;;
13388;SDS011;6764;53.250;10.410;2023-05-10T10:59:46;7.53;;;6.82;;
13388;SDS011;6764;53.250;10.410;2023-05-10T11:02:55;7.40;;;6.70;;
13388;SDS011;6764;53.250;10.410;2023-05-10T11:07:57;8.00;;;6.38;;
13388;SDS011;6764;53.250;10.410;2023-05-10T11:10:24;8.05;;;7.15;;
13388;SDS011;6764;53.250;10.410;2023-05-10T11:15:30;7.40;;;6.80;;
13388;SDS011;6764;53.250;10.410;2023-05-10T11:18:18;8.18;;;7.10;;
13388;SDS011;6764;53.250;10.410;2023-05-10T11:20:50;9.88;;;7.40;;
13388;SDS011;6764;53.250;10.410;2023-05-10T11:23:16;8.73;;;7.22;;
13388;SDS011;6764;53.250;10.410;2023-05-10T11:25:43;9.90;;;7.45;;
13388;SDS011;6764;53.250;10.410;2023-05-10T11:28:13;6.97;;;6.40;;
13388;SDS011;6764;53.250;10.410;2023-05-10T11:30:39;8.20;;;6.93;;
13388;SDS011;6764;53.250;10.410;2023-05-10T11:33:06;7.43;;;6.72;;
13388;SDS011;6764;53.250;10.410;2023-05-10T11:35:39;7.50;;;6.80;;
13388;SDS011;6764;53.250;10.410;2023-05-10T11:38:05;7.80;;;7.10;;
13388;SDS011;6764;53.250;10.410;2023-05-10T11:40:32;9.05;;;8.00;;
13388;SDS011;6764;53.250;10.410;2023-05-10T11:42:57;8.32;;;6.97;;
13388;SDS011;6764;53.250;10.410;2023-05-10T11:45:24;9.60;;;7.18;;
13388;SDS011;6764;53.250;10.410;2023-05-10T11:47:50;8.25;;;7.10;;
13388;SDS011;6764;53.250;10.410;2023-05-10T11:50:16;8.00;;;7.20;;
13388;SDS011;6764;53.250;10.410;2023-05-10T11:52:42;8.88;;;7.97;;
13388;SDS011;6764;53.250;10.410;2023-05-10T11:55:08;10.15;;;8.15;;
13388;SDS011;6764;53.250;10.410;2023-05-10T11:57:34;7.90;;;7.20;;
13388;SDS011;6764;53.250;10.410;2023-05-10T12:00:00;7.88;;;7.18;;
13388;SDS011;6764;53.250;10.410;2023-05-10T12:02:28;9.32;;;8.30;;
13388;SDS011;6764;53.250;10.410;2023-05-10T12:04:54;12.45;;;7.97;;
13388;SDS011;6764;53.250;10.410;2023-05-10T12:07:21;9.07;;;8.20;;
13388;SDS011;6764;53.250;10.410;2023-05-10T12:12:39;10.65;;;8.00;;
13388;SDS011;6764;53.250;10.410;2023-05-10T12:15:21;8.00;;;7.30;;
13388;SDS011;6764;53.250;10.410;2023-05-10T12:17:48;7.43;;;6.82;;
13388;SDS011;6764;53.250;10.410;2023-05-10T12:20:16;8.23;;;7.45;;
13388;SDS011;6764;53.250;10.410;2023-05-10T12:22:49;8.88;;;7.95;;
13388;SDS011;6764;53.250;10.410;2023-05-10T12:25:17;8.30;;;7.15;;
13388;SDS011;6764;53.250;10.410;2023-05-10T12:27:53;7.72;;;7.03;;
13388;SDS011;6764;53.250;10.410;2023-05-10T12:30:24;8.13;;;7.43;;
13388;SDS011;6764;53.250;10.410;2023-05-10T12:33:00;7.90;;;7.20;;
13388;SDS011;6764;53.250;10.410;2023-05-10T12:35:29;7.45;;;6.85;;
13388;SDS011;6764;53.250;10.410;2023-05-10T12:37:56;8.23;;;7.03;;
13388;SDS011;6764;53.250;10.410;2023-05-10T12:40:21;8.20;;;7.50;;
13388;SDS011;6764;53.250;10.410;2023-05-10T12:42:47;8.30;;;7.50;;
13388;SDS011;6764;53.250;10.410;2023-05-10T12:45:13;8.38;;;7.68;;
13388;SDS011;6764;53.250;10.410;2023-05-10T12:47:39;7.55;;;6.95;;
13388;SDS011;6764;53.250;10.410;2023-05-10T12:50:05;7.53;;;6.93;;
13388;SDS011;6764;53.250;10.410;2023-05-10T12:52:31;8.23;;;7.13;;
13388;SDS011;6764;53.250;10.410;2023-05-10T12:54:58;8.13;;;7.38;;
13388;SDS011;6764;53.250;10.410;2023-05-10T12:57:24;8.70;;;7.90;;
13388;SDS011;6764;53.250;10.410;2023-05-10T12:59:50;8.82;;;8.02;;
13388;SDS011;6764;53.250;10.410;2023-05-10T13:02:16;8.75;;;7.95;;
13388;SDS011;6764;53.250;10.410;2023-05-10T13:04:45;8.63;;;7.72;;
13388;SDS011;6764;53.250;10.410;2023-05-10T13:07:12;10.00;;;7.85;;
13388;SDS011;6764;53.250;10.410;2023-05-10T13:09:37;7.28;;;6.00;;
13388;SDS011;6764;53.250;10.410;2023-05-10T13:12:03;8.18;;;7.47;;
13388;SDS011;6764;53.250;10.410;2023-05-10T13:14:31;7.68;;;6.97;;
13388;SDS011;6764;53.250;10.410;2023-05-10T13:16:57;7.57;;;6.82;;
13388;SDS011;6764;53.250;10.410;2023-05-10T13:19:22;7.25;;;6.65;;
13388;SDS011;6764;53.250;10.410;2023-05-10T13:21:48;7.32;;;6.72;;
13388;SDS011;6764;53.250;10.410;2023-05-10T13:24:13;6.95;;;6.32;;
13388;SDS011;6764;53.250;10.410;2023-05-10T13:26:39;7.38;;;6.45;;
13388;SDS011;6764;53.250;10.410;2023-05-10T13:29:05;8.20;;;6.63;;
13388;SDS011;6764;53.250;10.410;2023-05-10T13:31:31;7.45;;;6.75;;
13388;SDS011;6764;53.250;10.410;2023-05-10T13:33:58;6.28;;;5.68;;
13388;SDS011;6764;53.250;10.410;2023-05-10T13:36:23;5.80;;;5.30;;
13388;SDS011;6764;53.250;10.410;2023-05-10T13:38:49;7.80;;;6.60;;
13388;SDS011;6764;53.250;10.410;2023-05-10T13:41:14;6.40;;;5.80;;
13388;SDS011;6764;53.250;10.410;2023-05-10T13:43:40;6.30;;;5.70;;
13388;SDS011;6764;53.250;10.410;2023-05-10T13:46:05;6.47;;;5.88;;
13388;SDS011;6764;53.250;10.410;2023-05-10T13:48:31;6.28;;;5.78;;
13388;SDS011;6764;53.250;10.410;2023-05-10T13:50:56;5.78;;;5.28;;
13388;SDS011;6764;53.250;10.410;2023-05-10T13:53:22;5.70;;;5.20;;
13388;SDS011;6764;53.250;10.410;2023-05-10T13:55:48;18.10;;;15.98;;
13388;SDS011;6764;53.250;10.410;2023-05-10T13:58:13;8.13;;;7.32;;
13388;SDS011;6764;53.250;10.410;2023-05-10T14:00:39;6.47;;;5.88;;
13388;SDS011;6764;53.250;10.410;2023-05-10T14:03:07;5.32;;;4.60;;
13388;SDS011;6764;53.250;10.410;2023-05-10T14:05:35;5.32;;;4.93;;
13388;SDS011;6764;53.250;10.410;2023-05-10T14:08:01;5.40;;;4.97;;
13388;SDS011;6764;53.250;10.410;2023-05-10T14:10:28;7.30;;;5.10;;
13388;SDS011;6764;53.250;10.410;2023-05-10T14:12:55;11.60;;;5.35;;
13388;SDS011;6764;53.250;10.410;2023-05-10T14:15:20;19.15;;;13.73;;
13388;SDS011;6764;53.250;10.410;2023-05-10T14:17:46;8.38;;;6.82;;
13388;SDS011;6764;53.250;10.410;2023-05-10T14:20:13;5.18;;;4.78;;
13388;SDS011;6764;53.250;10.410;2023-05-10T14:22:38;4.95;;;4.55;;
13388;SDS011;6764;53.250;10.410;2023-05-10T14:25:05;4.80;;;4.40;;
13388;SDS011;6764;53.250;10.410;2023-05-10T14:27:31;4.30;;;3.90;;
13388;SDS011;6764;53.250;10.410;2023-05-10T14:29:58;4.57;;;4.18;;
13388;SDS011;6764;53.250;10.410;2023-05-10T14:32:24;5.40;;;3.80;;
13388;SDS011;6764;53.250;10.410;2023-05-10T14:34:49;7.35;;;5.70;;
13388;SDS011;6764;53.250;10.410;2023-05-10T14:37:15;6.38;;;5.78;;
13388;SDS011;6764;53.250;10.410;2023-05-10T14:39:41;4.00;;;3.70;;
13388;SDS011;6764;53.250;10.410;2023-05-10T14:42:07;3.90;;;3.60;;
13388;SDS011;6764;53.250;10.410;2023-05-10T14:44:33;4.93;;;3.50;;
13388;SDS011;6764;53.250;10.410;2023-05-10T14:46:59;4.38;;;3.30;;
13388;SDS011;6764;53.250;10.410;2023-05-10T14:49:25;3.70;;;3.20;;
13388;SDS011;6764;53.250;10.410;2023-05-10T14:51:51;3.70;;;3.13;;
13388;SDS011;6764;53.250;10.410;2023-05-10T14:54:17;3.42;;;3.22;;
13388;SDS011;6764;53.250;10.410;2023-05-10T14:56:42;3.80;;;3.40;;
13388;SDS011;6764;53.250;10.410;2023-05-10T14:59:08;5.18;;;3.75;;
13388;SDS011;6764;53.250;10.410;2023-05-10T15:01:33;3.45;;;3.03;;
13388;SDS011;6764;53.250;10.410;2023-05-10T15:04:02;3.38;;;3.17;;
13388;SDS011;6764;53.250;10.410;2023-05-10T15:06:32;3.25;;;3.05;;
13388;SDS011;6764;53.250;10.410;2023-05-10T15:08:59;4.65;;;3.70;;
13388;SDS011;6764;53.250;10.410;2023-05-10T15:11:25;3.60;;;3.30;;
13388;SDS011;6764;53.250;10.410;2023-05-10T15:13:51;6.45;;;5.60;;
13388;SDS011;6764;53.250;10.410;2023-05-10T15:16:17;3.45;;;3.13;;
13388;SDS011;6764;53.250;10.410;2023-05-10T15:18:43;3.58;;;2.85;;
13388;SDS011;6764;53.250;10.410;2023-05-10T15:21:08;3.83;;;3.22;;
13388;SDS011;6764;53.250;10.410;2023-05-10T15:23:34;4.40;;;4.00;;
13388;SDS011;6764;53.250;10.410;2023-05-10T15:26:00;3.72;;;3.30;;
13388;SDS011;6764;53.250;10.410;2023-05-10T15:28:27;4.03;;;2.90;;
13388;SDS011;6764;53.250;10.410;2023-05-10T15:30:53;4.07;;;3.53;;
13388;SDS011;6764;53.250;10.410;2023-05-10T15:33:19;4.18;;;3.75;;
13388;SDS011;6764;53.250;10.410;2023-05-10T15:35:44;5.35;;;4.93;;